createdAt,value
2022-11-24T00:02:28.327Z,38
2022-11-24T00:04:58.833Z,49
2022-11-24T00:07:29.861Z,51
2022-11-24T00:10:00.497Z,55
2022-11-24T00:12:31.177Z,55
2022-11-24T00:15:02.340Z,47
2022-11-24T00:17:34.156Z,51
2022-11-24T00:20:05.887Z,42
2022-11-24T00:22:45.124Z,40
2022-11-24T00:25:16.052Z,42
2022-11-24T00:27:46.784Z,48
2022-11-24T00:30:18.026Z,39
2022-11-24T00:32:49.674Z,43
2022-11-24T00:35:20.336Z,36
2022-11-24T00:37:52.740Z,40
2022-11-24T00:40:23.241Z,44
2022-11-24T00:42:53.616Z,39
2022-11-24T00:45:23.659Z,41
2022-11-24T00:47:54.344Z,42
2022-11-24T00:50:28.131Z,42
2022-11-24T00:53:00.609Z,35
2022-11-24T00:55:31.440Z,41
2022-11-24T00:58:02.398Z,35
2022-11-24T01:00:34.660Z,38
2022-11-24T01:03:05.807Z,37
2022-11-24T01:05:36.633Z,36
2022-11-24T01:08:07.707Z,39
2022-11-24T01:10:38.669Z,44
2022-11-24T01:13:10.156Z,49
2022-11-24T01:15:41.631Z,39
2022-11-24T01:18:12.402Z,36
2022-11-24T01:20:43.142Z,40
2022-11-24T01:23:14.307Z,36
2022-11-24T01:25:47.666Z,40
2022-11-24T01:28:18.472Z,43
2022-11-24T01:30:49.300Z,42
2022-11-24T01:33:20.349Z,38
2022-11-24T01:35:50.741Z,44
2022-11-24T01:38:21.424Z,34
2022-11-24T01:40:51.843Z,40
2022-11-24T01:43:22.869Z,41
2022-11-24T01:45:58.092Z,36
2022-11-24T01:48:31.706Z,40
2022-11-24T01:51:03.861Z,43
2022-11-24T01:53:34.792Z,43
2022-11-24T01:56:05.065Z,39
2022-11-24T01:58:35.494Z,39
2022-11-24T02:01:09.199Z,44
2022-11-24T02:03:40.277Z,43
2022-11-24T02:06:11.274Z,32
2022-11-24T02:08:42.909Z,37
2022-11-24T02:11:13.804Z,34
2022-11-24T02:13:44.465Z,37
2022-11-24T02:16:16.329Z,44
2022-11-24T02:18:47.117Z,36
2022-11-24T02:21:18.029Z,42
2022-11-24T02:23:47.809Z,45
2022-11-24T02:26:18.557Z,43
2022-11-24T02:28:49.788Z,40
2022-11-24T02:31:20.994Z,42
2022-11-24T02:33:53.270Z,36
2022-11-24T02:36:24.233Z,35
2022-11-24T02:38:58.924Z,48
2022-11-24T02:41:30.463Z,40
2022-11-24T02:44:01.952Z,46
2022-11-24T02:46:33.232Z,48
2022-11-24T02:49:04.029Z,44
2022-11-24T02:51:36.614Z,48
2022-11-24T02:54:07.475Z,46
2022-11-24T02:56:40.279Z,39
2022-11-24T02:59:13.083Z,37
2022-11-24T03:01:44.507Z,44
2022-11-24T03:04:15.204Z,44
2022-11-24T03:06:46.227Z,40
2022-11-24T03:09:17.792Z,37
2022-11-24T03:11:50.324Z,45
2022-11-24T03:14:21.837Z,43
2022-11-24T03:16:53.172Z,39
2022-11-24T03:19:25.208Z,50
2022-11-24T03:21:56.420Z,45
2022-11-24T03:24:27.280Z,44
2022-11-24T03:26:58.149Z,41
2022-11-24T03:29:29.148Z,50
2022-11-24T03:32:00.235Z,45
2022-11-24T03:34:31.608Z,45
2022-11-24T03:37:03.002Z,38
2022-11-24T03:39:33.988Z,42
2022-11-24T03:42:08.555Z,49
2022-11-24T03:44:39.347Z,48
2022-11-24T03:47:10.787Z,43
2022-11-24T03:49:42.205Z,47
2022-11-24T03:52:13.449Z,56
2022-11-24T03:54:44.503Z,48
2022-11-24T03:57:15.686Z,41
2022-11-24T03:59:49.707Z,55
2022-11-24T04:02:19.408Z,57
2022-11-24T04:04:50.480Z,51
2022-11-24T04:07:21.261Z,49
2022-11-24T04:09:51.990Z,49
2022-11-24T04:12:22.377Z,51
2022-11-24T04:14:52.952Z,56
2022-11-24T04:17:28.379Z,53
2022-11-24T04:19:59.444Z,53
2022-11-24T04:22:30.441Z,42
2022-11-24T04:25:01.606Z,42
2022-11-24T04:27:35.943Z,50
2022-11-24T04:30:06.798Z,45
2022-11-24T04:32:43.679Z,49
2022-11-24T04:35:16.481Z,51
2022-11-24T04:37:47.189Z,50
2022-11-24T04:40:18.241Z,45
2022-11-24T04:42:48.995Z,46
2022-11-24T04:45:25.539Z,44
2022-11-24T04:47:58.451Z,43
2022-11-24T04:50:29.213Z,44
2022-11-24T04:53:00.683Z,41
2022-11-24T04:55:31.998Z,53
2022-11-24T04:58:03.296Z,36
2022-11-24T05:00:33.726Z,51
2022-11-24T05:03:04.409Z,43
2022-11-24T05:05:35.002Z,44
2022-11-24T05:08:06.181Z,49
2022-11-24T05:10:37.235Z,47
2022-11-24T05:13:08.422Z,40
2022-11-24T05:15:42.501Z,56
2022-11-24T05:18:13.058Z,48
2022-11-24T05:20:43.807Z,33
2022-11-24T05:23:15.158Z,48
2022-11-24T05:25:47.727Z,45
2022-11-24T05:28:16.698Z,45
2022-11-24T05:30:48.105Z,45
2022-11-24T05:33:19.292Z,52
2022-11-24T05:35:50.703Z,44
2022-11-24T05:38:21.738Z,58
2022-11-24T05:40:52.383Z,56
2022-11-24T05:43:23.432Z,58
2022-11-24T05:45:55.565Z,60
2022-11-24T05:48:28.661Z,53
2022-11-24T05:51:00.324Z,47
2022-11-24T05:53:31.606Z,50
2022-11-24T05:56:02.840Z,53
2022-11-24T05:58:33.950Z,62
2022-11-24T06:01:04.479Z,56
2022-11-24T06:03:35.151Z,61
2022-11-24T06:06:05.745Z,67
2022-11-24T06:08:36.822Z,57
2022-11-24T06:11:07.130Z,57
2022-11-24T06:13:38.035Z,53
2022-11-24T06:16:08.690Z,51
2022-11-24T06:18:39.311Z,56
2022-11-24T06:21:11.742Z,40
2022-11-24T06:23:41.326Z,56
2022-11-24T06:26:10.195Z,41
2022-11-24T06:28:41.084Z,43
2022-11-24T06:31:11.142Z,50
2022-11-24T06:33:41.691Z,45
2022-11-24T06:36:12.223Z,45
2022-11-24T06:38:43.372Z,52
2022-11-24T06:41:14.591Z,50
2022-11-24T06:43:45.237Z,58
2022-11-24T06:46:15.801Z,47
2022-11-24T06:48:46.546Z,48
2022-11-24T06:51:17.194Z,42
2022-11-24T06:53:47.854Z,50
2022-11-24T06:56:18.976Z,32
2022-11-24T06:58:52.528Z,33
2022-11-24T07:01:23.570Z,43
2022-11-24T07:03:56.357Z,42
2022-11-24T07:06:28.506Z,37
2022-11-24T07:09:00.991Z,40
2022-11-24T07:11:31.999Z,43
2022-11-24T07:14:02.603Z,41
2022-11-24T07:16:38.566Z,39
2022-11-24T07:19:08.726Z,35
2022-11-24T07:21:39.027Z,36
2022-11-24T07:24:15.447Z,38
2022-11-24T07:26:46.954Z,36
2022-11-24T07:29:17.221Z,33
2022-11-24T07:31:48.445Z,36
2022-11-24T07:34:19.130Z,38
2022-11-24T07:36:52.604Z,28
2022-11-24T07:39:24.133Z,43
2022-11-24T07:41:55.084Z,36
2022-11-24T07:44:25.898Z,29
2022-11-24T07:46:56.247Z,40
2022-11-24T07:49:26.656Z,47
2022-11-24T07:51:57.575Z,43
2022-11-24T07:54:28.242Z,47
2022-11-24T07:57:01.362Z,34
2022-11-24T07:59:32.287Z,35
2022-11-24T08:02:02.702Z,43
2022-11-24T08:04:33.480Z,29
2022-11-24T08:07:05.613Z,37
2022-11-24T08:09:36.362Z,25
2022-11-24T08:12:07.035Z,34
2022-11-24T08:14:38.614Z,26
2022-11-24T08:17:09.597Z,29
2022-11-24T08:19:42.070Z,29
2022-11-24T08:22:13.184Z,26
2022-11-24T08:24:44.995Z,28
2022-11-24T08:27:15.997Z,32
2022-11-24T08:29:46.762Z,29
2022-11-24T08:32:21.862Z,24
2022-11-24T08:34:47.538Z,31
2022-11-24T08:37:18.385Z,31
2022-11-24T08:39:49.210Z,32
2022-11-24T08:42:22.987Z,25
2022-11-24T08:44:58.754Z,20
2022-11-24T08:47:24.265Z,31
2022-11-24T08:49:55.146Z,31
2022-11-24T08:52:26.231Z,29
2022-11-24T08:54:56.823Z,23
2022-11-24T08:57:28.048Z,24
2022-11-24T08:59:59.355Z,27
2022-11-24T09:02:30.044Z,29
2022-11-24T09:05:00.968Z,27
2022-11-24T09:07:36.503Z,22
2022-11-24T09:10:08.037Z,28
2022-11-24T09:12:38.935Z,24
2022-11-24T09:15:09.460Z,25
2022-11-24T09:17:41.206Z,37
2022-11-24T09:20:11.201Z,24
2022-11-24T09:22:42.149Z,31
2022-11-24T09:25:13.636Z,27
2022-11-24T09:27:47.847Z,21
2022-11-24T09:30:18.485Z,24
2022-11-24T09:32:49.647Z,39
2022-11-24T09:35:21.220Z,21
2022-11-24T09:37:51.637Z,27
2022-11-24T09:40:21.891Z,23
2022-11-24T09:42:53.754Z,27
2022-11-24T09:45:41.953Z,24
2022-11-24T09:47:53.539Z,22
2022-11-24T09:50:23.741Z,23
2022-11-24T09:52:54.684Z,25
2022-11-24T09:55:25.722Z,28
2022-11-24T09:57:59.216Z,29
2022-11-24T10:00:31.175Z,26
2022-11-24T10:03:05.646Z,23
2022-11-24T10:05:36.069Z,19
2022-11-24T10:08:06.839Z,20
2022-11-24T10:10:37.481Z,21
2022-11-24T10:13:07.721Z,24
2022-11-24T10:15:40.864Z,31
2022-11-24T10:18:16.357Z,30
2022-11-24T10:20:46.613Z,26
2022-11-24T10:23:26.381Z,27
2022-11-24T10:25:57.593Z,25
2022-11-24T10:28:28.529Z,22
2022-11-24T10:30:59.575Z,32
2022-11-24T10:33:31.172Z,29
2022-11-24T10:36:03.597Z,32
2022-11-24T10:38:34.147Z,35
2022-11-24T10:41:04.385Z,27
2022-11-24T10:43:35.300Z,33
2022-11-24T10:46:10.466Z,26
2022-11-24T10:48:43.518Z,24
2022-11-24T10:51:14.495Z,33
2022-11-24T10:53:49.073Z,28
2022-11-24T10:56:21.072Z,32
2022-11-24T10:58:51.488Z,32
2022-11-24T11:01:22.785Z,31
2022-11-24T11:03:53.083Z,45
2022-11-24T11:06:23.310Z,89
2022-11-24T11:08:53.538Z,50
2022-11-24T11:11:24.088Z,45
2022-11-24T11:13:58.431Z,32
2022-11-24T11:16:25.254Z,38
2022-11-24T11:19:25.959Z,24
2022-11-24T11:21:37.158Z,34
2022-11-24T11:24:07.438Z,36
2022-11-24T11:26:38.503Z,67
2022-11-24T11:34:02.584Z,55
2022-11-24T11:34:22.024Z,40
2022-11-24T11:36:46.685Z,41
2022-11-24T11:39:21.260Z,40
2022-11-24T11:41:51.967Z,30
2022-11-24T11:44:22.429Z,28
2022-11-24T11:46:53.136Z,31
2022-11-24T11:49:23.823Z,36
2022-11-24T11:51:54.244Z,34
2022-11-24T11:54:24.463Z,27
2022-11-24T11:56:58.724Z,40
2022-11-24T11:59:29.681Z,32
2022-11-24T12:02:02.336Z,33
2022-11-24T12:04:32.697Z,28
2022-11-24T12:07:04.275Z,29
2022-11-24T12:09:34.786Z,28
2022-11-24T12:12:04.690Z,42
2022-11-24T12:14:37.567Z,29
2022-11-24T12:17:06.100Z,29
2022-11-24T12:19:37.322Z,28
2022-11-24T12:22:07.519Z,25
2022-11-24T12:24:38.832Z,26
2022-11-24T12:27:09.290Z,21
2022-11-24T12:29:40.995Z,19
2022-11-24T12:32:12.908Z,25
2022-11-24T12:34:44.398Z,27
2022-11-24T12:37:15.164Z,24
2022-11-24T12:39:45.631Z,29
2022-11-24T12:42:18.672Z,45
2022-11-24T12:44:49.263Z,31
2022-11-24T12:47:19.667Z,28
2022-11-24T12:49:49.902Z,23
2022-11-24T12:52:20.446Z,25
2022-11-24T12:54:51.117Z,33
2022-11-24T12:57:29.790Z,24
2022-11-24T13:00:00.424Z,36
2022-11-24T13:02:31.316Z,50
2022-11-24T13:05:01.931Z,43
2022-11-24T13:07:32.455Z,64
2022-11-24T13:10:03.557Z,41
2022-11-24T13:12:34.277Z,78
2022-11-24T13:15:05.721Z,86
2022-11-24T13:17:58.330Z,76
2022-11-24T13:20:08.518Z,72
2022-11-24T13:22:39.239Z,76
2022-11-24T13:25:09.487Z,71
2022-11-24T13:27:40.570Z,71
2022-11-24T13:30:11.299Z,74
2022-11-24T13:32:41.930Z,80
2022-11-24T13:35:13.676Z,77
2022-11-24T13:37:45.754Z,80
2022-11-24T13:40:16.968Z,90
2022-11-24T13:42:47.471Z,84
2022-11-24T13:45:17.981Z,88
2022-11-24T13:47:48.902Z,81
2022-11-24T13:50:21.381Z,68
2022-11-24T13:52:51.578Z,67
2022-11-24T13:55:22.388Z,63
2022-11-24T13:57:54.586Z,67
2022-11-24T14:00:25.791Z,60
2022-11-24T14:02:56.689Z,58
2022-11-24T14:05:28.447Z,67
2022-11-24T14:07:59.631Z,64
2022-11-24T14:10:30.875Z,71
2022-11-24T14:13:00.557Z,76
2022-11-24T14:15:35.862Z,84
2022-11-24T14:18:08.970Z,70
2022-11-24T14:20:39.643Z,84
2022-11-24T14:23:10.678Z,76
2022-11-24T14:25:42.400Z,71
2022-11-24T14:28:16.892Z,85
2022-11-24T14:30:47.636Z,87
2022-11-24T14:33:27.564Z,76
2022-11-24T14:35:58.761Z,80
2022-11-24T14:38:29.738Z,52
2022-11-24T14:41:00.433Z,48
2022-11-24T14:43:33.478Z,44
2022-11-24T14:46:04.796Z,59
2022-11-24T14:48:35.748Z,67
2022-11-24T14:51:09.134Z,46
2022-11-24T14:53:39.558Z,48
2022-11-24T14:56:10.835Z,51
2022-11-24T14:58:44.923Z,52
2022-11-24T15:01:16.595Z,57
2022-11-24T15:03:48.186Z,58
2022-11-24T15:06:19.314Z,45
2022-11-24T15:08:51.340Z,48
2022-11-24T15:11:23.102Z,32
2022-11-24T15:13:55.702Z,40
2022-11-24T15:16:27.036Z,35
2022-11-24T15:18:58.500Z,36
2022-11-24T15:21:30.605Z,38
2022-11-24T15:24:01.711Z,41
2022-11-24T15:26:40.147Z,48
2022-11-24T15:29:05.303Z,48
2022-11-24T15:31:40.560Z,41
2022-11-24T15:34:16.732Z,46
2022-11-24T15:36:47.699Z,47
2022-11-24T15:39:20.387Z,52
2022-11-24T15:41:52.003Z,52
2022-11-24T15:44:23.340Z,49
2022-11-24T15:46:55.631Z,48
2022-11-24T15:49:26.551Z,46
2022-11-24T15:52:01.007Z,49
2022-11-24T15:54:32.572Z,63
2022-11-24T15:57:07.018Z,67
2022-11-24T15:59:38.140Z,62
2022-11-24T16:02:12.107Z,65
2022-11-24T16:04:44.624Z,64
2022-11-24T16:07:15.938Z,73
2022-11-24T16:09:48.804Z,70
2022-11-24T16:12:21.215Z,82
2022-11-24T16:14:54.801Z,76
2022-11-24T16:17:27.742Z,84
2022-11-24T16:20:00.654Z,84
2022-11-24T16:22:30.571Z,75
2022-11-24T16:25:01.409Z,79
2022-11-24T16:27:34.817Z,93
2022-11-24T16:30:06.212Z,96
2022-11-24T16:32:39.938Z,92
2022-11-24T16:35:11.818Z,94
2022-11-24T16:37:44.697Z,94
2022-11-24T16:40:18.904Z,102
2022-11-24T16:42:50.509Z,82
2022-11-24T16:45:21.567Z,82
2022-11-24T16:47:52.412Z,76
2022-11-24T16:50:25.828Z,80
2022-11-24T16:52:58.600Z,81
2022-11-24T16:55:29.749Z,83
2022-11-24T16:58:00.887Z,93
2022-11-24T17:00:32.013Z,87
2022-11-24T17:03:03.234Z,108
2022-11-24T17:05:37.007Z,101
2022-11-24T17:08:10.873Z,96
2022-11-24T17:10:42.229Z,96
2022-11-24T17:13:15.781Z,99
2022-11-24T17:15:51.101Z,105
2022-11-24T17:18:25.358Z,92
2022-11-24T17:20:56.877Z,90
2022-11-24T17:23:28.576Z,84
2022-11-24T17:25:59.444Z,66
2022-11-24T17:28:32.960Z,67
2022-11-24T17:31:04.490Z,52
2022-11-24T17:33:38.298Z,48
2022-11-24T17:36:09.414Z,48
2022-11-24T17:38:40.579Z,44
2022-11-24T17:41:11.745Z,48
2022-11-24T17:43:45.655Z,45
2022-11-24T17:46:17.189Z,58
2022-11-24T17:48:49.246Z,39
2022-11-24T17:51:20.151Z,41
2022-11-24T17:53:51.148Z,40
2022-11-24T17:56:22.651Z,51
2022-11-24T17:58:54.044Z,52
2022-11-24T18:01:27.056Z,49
2022-11-24T18:03:59.277Z,47
2022-11-24T18:06:30.553Z,40
2022-11-24T18:09:06.155Z,51
2022-11-24T18:11:46.253Z,37
2022-11-24T18:14:17.483Z,45
2022-11-24T18:16:49.659Z,47
2022-11-24T18:19:20.947Z,44
2022-11-24T18:21:52.431Z,49
2022-11-24T18:24:24.298Z,40
2022-11-24T18:26:59.457Z,45
2022-11-24T18:29:30.583Z,35
2022-11-24T18:32:04.576Z,36
2022-11-24T18:34:37.456Z,39
2022-11-24T18:37:08.394Z,36
2022-11-24T18:39:44.410Z,42
2022-11-24T18:42:20.742Z,37
2022-11-24T18:44:54.259Z,33
2022-11-24T18:47:24.679Z,39
2022-11-24T18:49:56.216Z,52
2022-11-24T18:52:29.442Z,36
2022-11-24T18:55:01.707Z,37
2022-11-24T18:57:32.852Z,57
2022-11-24T19:00:04.362Z,53
2022-11-24T19:02:38.016Z,53
2022-11-24T19:05:09.419Z,41
2022-11-24T19:07:41.030Z,43
2022-11-24T19:10:12.352Z,46
2022-11-24T19:12:44.380Z,47
2022-11-24T19:15:15.557Z,42
2022-11-24T19:17:47.476Z,43
2022-11-24T19:20:16.603Z,57
2022-11-24T19:22:47.411Z,44
2022-11-24T19:25:17.955Z,48
2022-11-24T19:27:49.050Z,54
2022-11-24T19:30:22.089Z,42
2022-11-24T19:32:53.142Z,44
2022-11-24T19:35:24.288Z,43
2022-11-24T19:38:03.578Z,38
2022-11-24T19:40:34.276Z,44
2022-11-24T19:43:05.210Z,54
2022-11-24T19:45:36.764Z,50
2022-11-24T19:48:07.904Z,49
2022-11-24T19:50:43.212Z,42
2022-11-24T19:53:15.284Z,44
2022-11-24T19:55:55.436Z,48
2022-11-24T19:58:26.454Z,59
2022-11-24T20:01:01.045Z,57
2022-11-24T20:03:32.418Z,55
2022-11-24T20:06:03.959Z,58
2022-11-24T20:08:35.223Z,56
2022-11-24T20:11:08.282Z,56
2022-11-24T20:13:39.169Z,70
2022-11-24T20:16:10.483Z,60
2022-11-24T20:18:42.352Z,70
2022-11-24T20:21:13.400Z,67
2022-11-24T20:23:44.368Z,65
2022-11-24T20:26:16.588Z,68
2022-11-24T20:28:51.328Z,64
2022-11-24T20:31:22.298Z,60
2022-11-24T20:33:54.032Z,58
2022-11-24T20:36:26.389Z,53
2022-11-24T20:38:59.059Z,53
2022-11-24T20:41:30.590Z,63
2022-11-24T20:44:01.937Z,51
2022-11-24T20:46:33.105Z,53
2022-11-24T20:49:04.124Z,49
2022-11-24T20:51:35.332Z,44
2022-11-24T20:54:07.490Z,51
2022-11-24T20:56:39.280Z,47
2022-11-24T20:59:10.575Z,56
2022-11-24T21:01:42.469Z,52
2022-11-24T21:04:14.695Z,49
2022-11-24T21:06:45.753Z,60
2022-11-24T21:09:16.737Z,56
2022-11-24T21:11:48.004Z,51
2022-11-24T21:14:19.352Z,60
2022-11-24T21:16:50.564Z,60
2022-11-24T21:19:21.845Z,55
2022-11-24T21:21:54.272Z,51
2022-11-24T21:24:25.596Z,57
2022-11-24T21:26:56.687Z,64
2022-11-24T21:29:28.404Z,60
2022-11-24T21:32:00.269Z,63
2022-11-24T21:34:32.729Z,64
2022-11-24T21:37:04.194Z,63
2022-11-24T21:39:35.798Z,64
2022-11-24T21:42:07.174Z,75
2022-11-24T21:44:38.520Z,66
2022-11-24T21:47:09.607Z,68
2022-11-24T21:49:41.172Z,54
2022-11-24T21:52:13.430Z,56
2022-11-24T21:54:44.896Z,57
2022-11-24T21:57:16.225Z,55
2022-11-24T21:59:47.339Z,53
2022-11-24T22:02:18.503Z,57
2022-11-24T22:04:51.147Z,56
2022-11-24T22:07:22.706Z,53
2022-11-24T22:09:53.974Z,49
2022-11-24T22:12:24.977Z,44
2022-11-24T22:14:56.240Z,40
2022-11-24T22:17:27.420Z,49
2022-11-24T22:20:03.649Z,48
2022-11-24T22:22:35.000Z,41
2022-11-24T22:25:06.175Z,46
2022-11-24T22:27:37.230Z,50
2022-11-24T22:30:08.267Z,56
2022-11-24T22:32:39.807Z,58
2022-11-24T22:35:11.487Z,57
2022-11-24T22:37:43.415Z,46
2022-11-24T22:40:14.774Z,47
2022-11-24T22:42:46.401Z,52
2022-11-24T22:45:17.619Z,52
2022-11-24T22:47:48.691Z,39
2022-11-24T22:50:19.842Z,55
2022-11-24T22:52:51.300Z,52
2022-11-24T22:55:22.137Z,48
2022-11-24T22:57:56.903Z,47
2022-11-24T23:00:24.282Z,48
2022-11-24T23:02:55.434Z,48
2022-11-24T23:05:26.657Z,44
2022-11-24T23:07:58.199Z,53
2022-11-24T23:10:29.679Z,53
2022-11-24T23:13:00.225Z,53
2022-11-24T23:15:31.590Z,48
2022-11-24T23:18:02.373Z,55
2022-11-24T23:20:32.862Z,51
2022-11-24T23:23:03.352Z,46
2022-11-24T23:25:34.180Z,45
2022-11-24T23:28:05.507Z,52
2022-11-24T23:30:36.536Z,42
2022-11-24T23:33:07.150Z,51
2022-11-24T23:35:37.634Z,55
2022-11-24T23:38:08.292Z,52
2022-11-24T23:40:38.856Z,49
2022-11-24T23:43:10.020Z,48
2022-11-24T23:45:41.092Z,46
2022-11-24T23:48:13.221Z,49
2022-11-24T23:50:43.918Z,44
2022-11-24T23:53:15.293Z,51
2022-11-24T23:55:44.158Z,48
2022-11-24T23:58:15.340Z,40
